Time;durP1;ratioP1;P1;durP2;ratioP2;P2;SDS_P1;SDS_P2;PMS_P1;PMS_P2;Temp;Humidity;BMP_temperature;BMP_pressure;BME280_temperature;BME280_humidity;BME280_pressure;Samples;Min_cycle;Max_cycle;Signal;HPM_P1;HPM_P2
2024/03/09 00:00:31;;;;;;;26.10;11.80;;;;;;;-145.69;56.09;52361.22;5103115;28;20251;-81
2024/03/09 00:02:59;;;;;;;21.80;10.10;;;;;;;-145.69;55.62;52400.81;5092721;28;20205;-81
2024/03/09 00:05:27;;;;;;;26.10;11.40;;;;;;;-145.69;56.13;52400.81;5093431;28;20266;-82
2024/03/09 00:07:56;;;;;;;20.57;10.47;;;;;;;-145.69;55.82;52381.00;5113359;28;20212;-82
2024/03/09 00:10:24;;;;;;;21.70;9.40;;;;;;;-145.69;56.22;52384.97;5112962;28;20202;-82
2024/03/09 00:12:52;;;;;;;22.37;10.37;;;;;;;-145.69;56.48;52369.13;5112689;28;20326;-81
2024/03/09 00:15:21;;;;;;;27.00;11.20;;;;;;;-145.69;56.85;52377.06;5113055;28;20202;-82
2024/03/09 00:17:49;;;;;;;24.00;11.33;;;;;;;-145.69;56.85;52384.97;5106020;28;20200;-82
2024/03/09 00:20:27;;;;;;;25.03;10.90;;;;;;;-145.69;56.81;52398.84;5112609;28;20221;-82
2024/03/09 00:22:57;;;;;;;22.47;10.10;;;;;;;-145.69;57.00;52363.19;5113235;28;20288;-81
2024/03/09 00:25:24;;;;;;;19.10;9.87;;;;;;;-145.69;56.83;52381.00;5113001;28;20670;-82
2024/03/09 00:27:52;;;;;;;22.60;11.03;;;;;;;-145.69;56.78;52369.13;5112856;28;20193;-82
2024/03/09 00:30:18;;;;;;;27.43;10.77;;;;;;;-145.69;57.23;52373.09;5112736;28;20197;-82
2024/03/09 00:32:47;;;;;;;22.03;10.63;;;;;;;-145.69;57.04;52345.38;5112804;28;20205;-81
2024/03/09 00:35:14;;;;;;;23.23;11.00;;;;;;;-145.69;57.62;52406.75;5096446;28;20198;-81
2024/03/09 00:37:40;;;;;;;21.83;10.20;;;;;;;-145.69;57.68;52384.97;5096223;28;20657;-82
2024/03/09 00:40:10;;;;;;;21.50;10.27;;;;;;;-145.69;58.05;52392.91;5111484;28;20232;-82
2024/03/09 00:42:36;;;;;;;21.17;10.20;;;;;;;-145.69;57.77;52400.81;5113087;28;20208;-84
2024/03/09 00:45:03;;;;;;;23.20;9.80;;;;;;;-145.69;58.15;52390.91;5112363;28;20197;-81
2024/03/09 00:47:30;;;;;;;26.60;9.67;;;;;;;-145.69;58.23;52369.13;5112612;28;20218;-83
2024/03/09 00:49:57;;;;;;;25.00;11.03;;;;;;;-145.69;58.12;52349.31;5112798;28;20201;-83
2024/03/09 00:52:25;;;;;;;23.20;10.63;;;;;;;-145.69;58.35;52345.38;5094429;28;20245;-83
2024/03/09 00:54:52;;;;;;;20.43;10.13;;;;;;;-145.69;58.45;52375.06;5095168;28;20606;-82
2024/03/09 00:57:20;;;;;;;25.90;11.10;;;;;;;-145.69;58.72;52392.91;5110967;28;20201;-82
2024/03/09 00:59:47;;;;;;;21.13;9.90;;;;;;;-145.69;58.98;52377.06;5116799;28;20224;-82
2024/03/09 01:02:13;;;;;;;24.43;9.97;;;;;;;-145.69;58.68;52355.28;5116401;28;20201;-82
2024/03/09 01:04:40;;;;;;;24.63;10.30;;;;;;;-145.69;58.59;52416.66;5116968;28;20223;-82
2024/03/09 01:07:07;;;;;;;22.37;10.33;;;;;;;-145.69;58.68;52379.03;5115760;28;20201;-82
2024/03/09 01:09:34;;;;;;;21.87;10.37;;;;;;;-145.69;58.83;52432.50;5115331;28;20682;-82
2024/03/09 01:12:00;;;;;;;23.20;10.87;;;;;;;-145.69;58.88;52379.03;5116646;28;20202;-82
2024/03/09 01:14:28;;;;;;;21.60;10.23;;;;;;;-145.69;58.89;52404.78;5116269;28;20201;-82
2024/03/09 01:16:57;;;;;;;24.33;10.20;;;;;;;-145.69;58.74;52377.06;5116387;28;20205;-83
2024/03/09 01:19:24;;;;;;;24.93;10.73;;;;;;;-145.69;58.93;52363.19;5116247;28;20225;-82
2024/03/09 01:21:52;;;;;;;20.47;9.63;;;;;;;-145.69;58.90;52381.00;5116346;28;20194;-82
2024/03/09 01:24:20;;;;;;;22.13;9.80;;;;;;;-145.69;59.29;52404.78;5115272;28;20200;-82
2024/03/09 01:26:46;;;;;;;25.67;10.20;;;;;;;-145.69;59.51;52386.97;5115877;28;20212;-82
2024/03/09 01:29:13;;;;;;;24.33;10.80;;;;;;;-145.69;59.60;52394.88;5116280;28;20194;-82
2024/03/09 01:31:40;;;;;;;23.73;10.70;;;;;;;-145.69;59.94;52383.00;5116103;28;20559;-82
2024/03/09 01:34:09;;;;;;;29.03;12.03;;;;;;;-145.69;59.74;52345.38;5115452;28;20201;-83
2024/03/09 01:36:36;;;;;;;23.13;10.77;;;;;;;-145.69;59.62;52379.03;5116358;28;20197;-83
2024/03/09 01:39:02;;;;;;;25.00;11.60;;;;;;;-145.69;59.61;52404.78;5116343;28;20208;-83
2024/03/09 01:41:29;;;;;;;25.07;10.87;;;;;;;-145.69;59.84;52377.06;5114007;28;20583;-83
2024/03/09 01:43:56;;;;;;;26.67;11.20;;;;;;;-145.69;59.46;52428.53;5095519;28;20202;-83
2024/03/09 01:46:24;;;;;;;24.53;10.90;;;;;;;-145.69;59.86;52388.94;5114492;28;20240;-82
2024/03/09 01:48:52;;;;;;;26.40;11.60;;;;;;;-145.69;59.71;52400.81;5116009;28;20260;-82
2024/03/09 01:51:19;;;;;;;26.90;12.33;;;;;;;-145.69;59.68;52396.84;5116062;28;20201;-83
2024/03/09 01:53:46;;;;;;;27.53;11.07;;;;;;;-145.69;59.52;52384.97;5115385;28;20237;-83
2024/03/09 01:56:14;;;;;;;24.23;10.33;;;;;;;-145.69;59.66;52377.06;5115446;28;20578;-82
2024/03/09 01:58:42;;;;;;;21.40;9.90;;;;;;;-145.69;60.51;52377.06;5112779;28;20208;-83
2024/03/09 02:01:22;;;;;;;23.17;10.93;;;;;;;-145.69;60.64;52369.13;5095204;28;20692;-83
2024/03/09 02:03:53;;;;;;;24.30;11.60;;;;;;;-145.69;60.80;52367.16;5095103;28;20205;-83
2024/03/09 02:06:23;;;;;;;25.47;10.97;;;;;;;-145.69;60.64;52373.09;5113118;28;20547;-83
2024/03/09 02:08:51;;;;;;;23.97;10.77;;;;;;;-145.69;60.54;52375.06;5115479;28;20259;-83
2024/03/09 02:11:17;;;;;;;23.67;10.03;;;;;;;-145.69;60.62;52390.91;5115279;28;20212;-82
2024/03/09 02:13:46;;;;;;;22.63;10.70;;;;;;;-145.69;61.11;52373.09;5115192;28;20213;-82
2024/03/09 02:16:13;;;;;;;25.07;10.20;;;;;;;-145.69;60.83;52361.22;5109681;28;20198;-83
2024/03/09 02:18:40;;;;;;;20.97;9.73;;;;;;;-145.69;60.82;52432.50;5115286;28;20197;-82
2024/03/09 02:21:09;;;;;;;23.57;10.93;;;;;;;-145.69;60.51;52416.66;5114596;28;20225;-82
2024/03/09 02:23:39;;;;;;;24.77;11.13;;;;;;;-145.69;60.62;52361.22;5115151;28;20275;-82
2024/03/09 02:26:07;;;;;;;21.93;9.70;;;;;;;-145.69;60.19;52383.00;5114462;28;20213;-83
2024/03/09 02:28:36;;;;;;;24.90;10.93;;;;;;;-145.69;60.10;52404.78;5113682;28;20232;-82
2024/03/09 02:31:06;;;;;;;27.07;11.77;;;;;;;-145.69;60.76;52383.00;5115185;28;20202;-82
2024/03/09 02:33:36;;;;;;;27.70;11.17;;;;;;;-145.69;60.88;52392.91;5113911;28;20225;-83
2024/03/09 02:36:05;;;;;;;23.00;10.80;;;;;;;-145.69;61.06;52381.00;5114871;28;20201;-82
2024/03/09 02:38:31;;;;;;;26.00;11.20;;;;;;;-145.69;60.83;52414.69;5114515;28;20204;-83
2024/03/09 02:41:00;;;;;;;27.63;11.33;;;;;;;-145.69;60.86;52365.16;5114537;28;20253;-82
2024/03/09 02:43:28;;;;;;;23.57;11.37;;;;;;;-145.69;60.69;52416.66;5114823;28;20559;-82
2024/03/09 02:45:56;;;;;;;25.13;10.60;;;;;;;-145.69;60.56;52357.25;5114740;28;20293;-82
2024/03/09 02:48:23;;;;;;;23.90;10.07;;;;;;;-145.69;60.81;52396.84;5114290;28;20198;-82
2024/03/09 02:50:57;;;;;;;23.50;10.73;;;;;;;-145.69;61.03;52428.53;5113733;28;20205;-82
2024/03/09 02:53:23;;;;;;;21.03;9.90;;;;;;;-145.69;60.99;52410.72;5113997;28;20586;-82
2024/03/09 02:55:55;;;;;;;19.47;8.37;;;;;;;-145.69;61.34;52394.88;5114158;28;20198;-82
2024/03/09 02:58:21;;;;;;;22.73;10.13;;;;;;;-145.69;61.06;52410.72;5114020;28;20196;-82
2024/03/09 03:00:52;;;;;;;22.27;10.53;;;;;;;-145.69;61.26;52398.84;5114414;28;20257;-82
2024/03/09 03:06:04;;;;;;;29.33;11.87;;;;;;;-145.69;61.02;52420.63;5114434;28;20196;-82
2024/03/09 03:08:31;;;;;;;26.33;12.27;;;;;;;-145.69;61.49;52408.75;5112818;28;20197;-82
2024/03/09 03:11:03;;;;;;;26.60;11.67;;;;;;;-145.69;61.21;52371.13;5113652;28;20715;-83
2024/03/09 03:13:29;;;;;;;28.00;12.10;;;;;;;-145.69;61.35;52384.97;5113899;28;20198;-82
2024/03/09 03:15:58;;;;;;;27.30;10.97;;;;;;;-145.69;61.41;52404.78;5113819;28;20212;-83
2024/03/09 03:18:25;;;;;;;25.60;10.50;;;;;;;-145.69;61.42;52371.13;5113362;28;20229;-82
2024/03/09 03:20:53;;;;;;;25.33;11.13;;;;;;;-145.69;61.36;52365.16;5113873;28;20221;-83
2024/03/09 03:23:22;;;;;;;26.37;12.13;;;;;;;-145.69;61.29;52377.06;5113058;28;20594;-83
2024/03/09 03:25:52;;;;;;;26.43;10.77;;;;;;;-145.69;61.62;52369.13;5093472;28;20595;-83
2024/03/09 03:28:26;;;;;;;23.17;10.77;;;;;;;-145.69;61.37;52384.97;5098259;28;20225;-83
2024/03/09 03:30:55;;;;;;;22.93;10.37;;;;;;;-145.69;61.12;52369.13;5113817;28;20200;-82
2024/03/09 03:33:25;;;;;;;23.97;10.30;;;;;;;-145.69;60.99;52394.88;5113492;28;20660;-83
2024/03/09 03:35:52;;;;;;;24.33;10.43;;;;;;;-145.69;61.07;52384.97;5113693;27;20672;-83
2024/03/09 03:38:21;;;;;;;21.37;9.57;;;;;;;-145.69;60.84;52396.84;5113323;28;20185;-82
2024/03/09 03:40:47;;;;;;;22.37;10.23;;;;;;;-145.69;61.00;52373.09;5112262;28;20699;-82
2024/03/09 03:43:19;;;;;;;21.00;9.67;;;;;;;-145.69;60.64;52386.97;5113320;28;20201;-82
2024/03/09 03:45:49;;;;;;;18.83;9.13;;;;;;;-145.69;61.14;52365.16;5113698;28;20249;-82
2024/03/09 03:48:16;;;;;;;22.17;10.20;;;;;;;-145.69;60.64;52353.28;5113213;28;20190;-83
2024/03/09 03:50:44;;;;;;;20.10;9.00;;;;;;;-145.69;60.98;52402.78;5113300;28;20193;-82
2024/03/09 03:53:15;;;;;;;21.37;8.80;;;;;;;-145.69;61.30;52402.78;5113327;28;20606;-82
2024/03/09 03:55:42;;;;;;;21.50;9.33;;;;;;;-145.69;61.04;52402.78;5113185;28;20201;-82
2024/03/09 03:58:09;;;;;;;18.37;8.53;;;;;;;-145.69;60.78;52381.00;5111728;28;20202;-82
2024/03/09 04:00:42;;;;;;;16.20;8.97;;;;;;;-145.69;60.53;52390.91;5112990;28;20229;-81
2024/03/09 04:03:11;;;;;;;17.93;7.60;;;;;;;-145.69;61.19;52406.75;5113293;28;20281;-82
2024/03/09 04:05:44;;;;;;;17.23;7.80;;;;;;;-145.69;61.56;52412.69;5112876;28;20210;-83
2024/03/09 04:08:19;;;;;;;18.43;7.93;;;;;;;-145.69;61.14;52400.81;5112609;28;20201;-82
2024/03/09 04:10:59;;;;;;;16.33;7.40;;;;;;;-145.69;61.25;52375.06;5113222;28;20224;-82
2024/03/09 04:13:28;;;;;;;19.13;8.27;;;;;;;-145.69;61.73;52396.84;5112829;28;20199;-81
2024/03/09 04:15:57;;;;;;;19.67;8.60;;;;;;;-145.69;61.20;52384.97;5111277;28;20208;-82
2024/03/09 04:18:28;;;;;;;21.00;8.43;;;;;;;-145.69;61.27;52406.75;5112566;28;20683;-82
2024/03/09 04:20:56;;;;;;;27.30;9.20;;;;;;;-145.69;61.65;52394.88;5112553;28;20221;-82
2024/03/09 04:23:28;;;;;;;17.87;7.90;;;;;;;-145.69;62.14;52400.81;5112683;28;20201;-82
2024/03/09 04:25:55;;;;;;;17.83;7.50;;;;;;;-145.69;62.92;52438.44;5112862;28;20281;-81
2024/03/09 04:28:27;;;;;;;16.43;7.43;;;;;;;-145.69;63.19;52396.84;5112266;27;20529;-81
2024/03/09 04:30:56;;;;;;;15.00;7.13;;;;;;;-145.69;62.84;52414.69;5112941;28;20197;-82
2024/03/09 04:33:30;;;;;;;15.63;6.80;;;;;;;-145.69;63.36;52383.00;5111905;28;20209;-82
2024/03/09 04:36:06;;;;;;;15.37;6.40;;;;;;;-145.69;63.03;52410.72;5112533;28;20207;-82
2024/03/09 04:38:35;;;;;;;15.60;7.17;;;;;;;-145.69;64.26;52394.88;5112556;28;20205;-82
2024/03/09 04:41:05;;;;;;;16.40;7.73;;;;;;;-145.69;63.78;52422.59;5112692;28;20225;-82
2024/03/09 04:43:37;;;;;;;13.73;6.93;;;;;;;-145.69;63.95;52406.75;5112015;28;20205;-81
2024/03/09 04:46:05;;;;;;;15.80;6.93;;;;;;;-145.69;63.58;52408.75;5112592;28;20296;-81
2024/03/09 04:48:33;;;;;;;15.90;7.07;;;;;;;-145.69;63.79;52444.38;5111523;28;20269;-82
2024/03/09 04:51:02;;;;;;;15.50;7.37;;;;;;;-145.69;65.48;52420.63;5112681;28;20212;-82
2024/03/09 04:53:30;;;;;;;16.37;7.20;;;;;;;-145.69;64.53;52369.13;5112411;28;20229;-81
2024/03/09 04:56:01;;;;;;;17.67;7.90;;;;;;;-145.69;64.69;52371.13;5112555;28;20353;-81
2024/03/09 04:58:28;;;;;;;21.80;9.03;;;;;;;-145.69;65.18;52428.53;5112388;28;20201;-81
2024/03/09 05:00:55;;;;;;;23.87;9.67;;;;;;;-145.69;64.96;52404.78;5111908;28;20295;-81
2024/03/09 05:03:28;;;;;;;22.00;9.70;;;;;;;-145.69;65.33;52410.72;5112135;28;20204;-82
2024/03/09 05:05:55;;;;;;;21.60;9.20;;;;;;;-145.69;65.11;52428.53;5108019;28;20202;-82
2024/03/09 05:08:26;;;;;;;21.07;9.30;;;;;;;-145.69;64.94;52416.66;5112112;28;20221;-81
2024/03/09 05:10:56;;;;;;;23.93;9.60;;;;;;;-145.69;66.64;52402.78;5112307;28;20194;-83
2024/03/09 05:13:31;;;;;;;24.63;9.87;;;;;;;-145.69;65.65;52396.84;5112423;28;20564;-81
2024/03/09 05:15:57;;;;;;;19.60;8.53;;;;;;;-145.69;65.47;52420.63;5111738;28;20284;-81
2024/03/09 05:18:30;;;;;;;18.57;8.67;;;;;;;-145.69;67.13;52404.78;5112191;28;20208;-81
2024/03/09 05:20:56;;;;;;;21.60;9.20;;;;;;;-145.69;67.18;52404.78;5111931;28;20568;-81
2024/03/09 05:23:23;;;;;;;21.20;8.80;;;;;;;-145.69;67.09;52402.78;5103232;28;20671;-81
2024/03/09 05:25:49;;;;;;;23.97;9.27;;;;;;;-145.69;67.60;52416.66;5100366;28;20205;-82
2024/03/09 05:28:19;;;;;;;20.90;8.57;;;;;;;-145.69;67.04;52416.66;5112084;28;20198;-81
2024/03/09 05:30:50;;;;;;;18.93;9.03;;;;;;;-145.69;66.94;52416.66;5112315;28;20198;-81
2024/03/09 05:33:17;;;;;;;23.10;8.87;;;;;;;-145.69;67.30;52392.91;5112451;28;20635;-81
2024/03/09 05:35:43;;;;;;;20.10;8.87;;;;;;;-145.69;66.64;52398.84;5111534;28;20236;-81
2024/03/09 05:38:10;;;;;;;20.80;8.63;;;;;;;-145.69;67.53;52422.59;5111431;28;20202;-80
2024/03/09 05:40:36;;;;;;;21.27;8.50;;;;;;;-145.69;67.72;52432.50;5113107;28;20279;-81
2024/03/09 05:43:06;;;;;;;20.87;9.77;;;;;;;-145.69;68.20;52386.97;5115757;28;20198;-81
2024/03/09 05:45:35;;;;;;;18.70;8.83;;;;;;;-145.69;67.81;52388.94;5115102;28;20198;-83
2024/03/09 05:48:03;;;;;;;19.97;8.87;;;;;;;-145.69;67.67;52396.84;5116044;28;20276;-83
2024/03/09 05:50:36;;;;;;;19.73;8.80;;;;;;;-145.69;68.33;52460.22;5115508;28;20559;-83
2024/03/09 05:53:08;;;;;;;20.50;9.10;;;;;;;-145.69;68.92;52408.75;5115382;28;20225;-83
2024/03/09 05:55:37;;;;;;;24.90;9.57;;;;;;;-145.69;68.94;52426.56;5115235;28;20198;-80
2024/03/09 05:58:09;;;;;;;27.20;9.47;;;;;;;-145.69;68.50;52444.38;5101135;27;20664;-82
2024/03/09 06:00:42;;;;;;;20.13;8.83;;;;;;;-145.69;68.94;52404.78;5095040;28;20591;-80
2024/03/09 06:03:12;;;;;;;23.27;10.00;;;;;;;-145.69;68.89;52394.88;5094920;28;20683;-82
2024/03/09 06:05:41;;;;;;;22.63;9.83;;;;;;;-145.69;68.15;52420.63;5114714;28;20199;-82
2024/03/09 06:08:08;;;;;;;28.73;11.00;;;;;;;-145.69;68.34;52410.72;5115456;28;20205;-82
2024/03/09 06:10:35;;;;;;;25.50;11.13;;;;;;;-145.69;68.74;52428.53;5116267;27;20289;-82
2024/03/09 06:13:06;;;;;;;27.50;11.00;;;;;;;-145.69;68.52;52412.69;5114463;28;20193;-82
2024/03/09 06:15:43;;;;;;;30.07;12.23;;;;;;;-145.69;68.69;52418.63;5114591;28;20205;-82
2024/03/09 06:18:16;;;;;;;29.57;11.83;;;;;;;-145.69;68.29;52446.38;5114954;28;20204;-82
2024/03/09 06:20:44;;;;;;;26.57;10.90;;;;;;;-145.69;68.33;52410.72;5114669;28;20202;-82
2024/03/09 06:23:19;;;;;;;29.93;12.97;;;;;;;-145.69;67.97;52432.50;5115221;28;20201;-81
2024/03/09 06:25:47;;;;;;;31.43;11.80;;;;;;;-145.69;68.25;52432.50;5114734;28;20197;-82
2024/03/09 06:28:24;;;;;;;33.67;13.73;;;;;;;-145.69;68.28;52414.69;5114792;28;20209;-82
2024/03/09 06:30:50;;;;;;;29.07;12.43;;;;;;;-145.69;68.30;52420.63;5110342;28;20656;-82
2024/03/09 06:33:23;;;;;;;35.07;13.93;;;;;;;-145.69;68.06;52418.63;5094309;28;20288;-82
2024/03/09 06:35:53;;;;;;;32.07;12.27;;;;;;;-145.69;68.29;52412.69;5114018;28;20189;-82
2024/03/09 06:38:20;;;;;;;27.53;11.83;;;;;;;-145.69;68.17;52400.81;5114549;28;20288;-83
2024/03/09 06:40:50;;;;;;;31.73;12.17;;;;;;;-145.69;67.65;52422.59;5114728;28;20205;-82
2024/03/09 06:43:20;;;;;;;31.50;13.23;;;;;;;-145.69;67.72;52408.75;5115124;28;20228;-82
2024/03/09 06:45:51;;;;;;;33.63;13.23;;;;;;;-145.69;68.10;52448.34;5114110;27;20239;-82
2024/03/09 06:48:23;;;;;;;28.43;11.17;;;;;;;-145.69;67.81;52448.34;5094582;28;20202;-83
2024/03/09 06:50:57;;;;;;;26.13;10.40;;;;;;;-145.69;67.67;52416.66;5093344;28;20239;-82
2024/03/09 06:53:30;;;;;;;30.63;12.00;;;;;;;-145.69;68.10;52361.22;5094041;28;20229;-83
2024/03/09 06:56:03;;;;;;;28.27;12.23;;;;;;;-145.69;68.07;52408.75;5113285;28;20575;-83
2024/03/09 06:58:32;;;;;;;25.30;10.07;;;;;;;-145.69;68.17;52388.94;5114673;28;20205;-82
2024/03/09 07:01:06;;;;;;;27.87;11.13;;;;;;;-145.69;68.45;52412.69;5113787;28;20209;-83
2024/03/09 07:03:39;;;;;;;26.07;11.77;;;;;;;-145.69;68.71;52406.75;5114681;28;20288;-82
2024/03/09 07:06:14;;;;;;;26.10;10.90;;;;;;;-145.69;68.90;52398.84;5112530;28;20289;-82
2024/03/09 07:08:46;;;;;;;26.83;10.67;;;;;;;-145.69;68.84;52420.63;5113890;28;20242;-83
2024/03/09 07:11:20;;;;;;;25.90;11.33;;;;;;;-145.69;69.34;52404.78;5114082;27;20197;-82
2024/03/09 07:13:48;;;;;;;30.87;11.30;;;;;;;-145.69;69.27;52422.59;5113805;28;20320;-81
2024/03/09 07:16:22;;;;;;;28.07;11.20;;;;;;;-145.69;68.92;52424.59;5093782;28;20214;-82
2024/03/09 07:18:54;;;;;;;29.33;11.83;;;;;;;-145.69;68.42;52440.44;5093632;28;20205;-82
2024/03/09 07:21:23;;;;;;;29.43;11.60;;;;;;;-145.69;68.05;52371.13;5093856;28;20257;-81
2024/03/09 07:23:56;;;;;;;30.90;10.60;;;;;;;-145.69;67.24;52384.97;5093385;28;20194;-81
2024/03/09 07:26:24;;;;;;;24.80;10.70;;;;;;;-145.69;66.82;52414.69;5093315;28;20202;-81
2024/03/09 07:28:54;;;;;;;26.73;11.17;;;;;;;-145.69;65.99;52412.69;5093452;28;20653;-82
2024/03/09 07:31:22;;;;;;;26.77;11.13;;;;;;;-145.69;65.35;52383.00;5093649;28;20206;-82
2024/03/09 07:33:50;;;;;;;23.93;10.40;;;;;;;-145.69;65.42;52384.97;5111751;28;20197;-82
2024/03/09 07:36:20;;;;;;;23.77;10.07;;;;;;;-145.69;64.54;52386.97;5113689;28;20209;-82
2024/03/09 07:38:49;;;;;;;25.47;10.33;;;;;;;-145.69;64.45;52369.13;5113442;28;20715;-82
2024/03/09 07:41:20;;;;;;;19.40;8.47;;;;;;;-145.69;64.43;52412.69;5114869;28;20288;-82
2024/03/09 07:43:51;;;;;;;23.53;9.20;;;;;;;-145.69;63.51;52402.78;5116996;28;20276;-82
2024/03/09 07:46:20;;;;;;;20.87;8.77;;;;;;;-145.69;63.84;52412.69;5117956;28;20287;-83
2024/03/09 07:48:48;;;;;;;19.30;8.40;;;;;;;-145.69;63.07;52373.09;5118674;28;20277;-83
2024/03/09 07:51:16;;;;;;;19.03;8.20;;;;;;;-145.69;62.86;52388.94;5118139;27;20207;-83
2024/03/09 07:53:42;;;;;;;18.37;7.77;;;;;;;-145.69;61.98;52367.16;5117832;28;20221;-83
2024/03/09 07:56:11;;;;;;;22.13;8.30;;;;;;;-145.69;61.68;52373.09;5117519;27;20206;-83
2024/03/09 07:58:40;;;;;;;16.73;7.77;;;;;;;-145.69;60.61;52392.91;5119337;28;20197;-83
2024/03/09 08:01:09;;;;;;;16.83;7.67;;;;;;;-145.69;59.21;52365.16;5118704;28;20216;-84
2024/03/09 08:03:40;;;;;;;17.23;7.27;;;;;;;-145.69;58.58;52361.22;5116685;28;20197;-82
2024/03/09 08:06:10;;;;;;;13.67;6.77;;;;;;;-145.69;58.08;52363.19;5118534;28;20202;-83
2024/03/09 08:08:38;;;;;;;13.93;6.20;;;;;;;-145.69;57.42;52367.16;5117442;28;20265;-81
2024/03/09 08:11:05;;;;;;;13.50;6.33;;;;;;;-145.69;56.21;52369.13;5118819;27;20201;-82
2024/03/09 08:13:35;;;;;;;17.70;5.90;;;;;;;-145.69;55.89;52347.34;5116808;28;20205;-82
2024/03/09 08:16:02;;;;;;;13.50;6.67;;;;;;;-145.69;54.99;52390.91;5117256;28;20197;-82
2024/03/09 08:18:31;;;;;;;13.20;6.33;;;;;;;-145.69;55.16;52357.25;5117743;28;20201;-83
2024/03/09 08:20:58;;;;;;;11.57;6.30;;;;;;;-145.69;54.40;52373.09;5115989;28;20193;-83
2024/03/09 08:23:26;;;;;;;16.03;5.93;;;;;;;-145.69;53.40;52361.22;5116490;28;20237;-83
2024/03/09 08:26:07;;;;;;;13.00;5.90;;;;;;;-145.69;53.53;52345.38;5117497;28;20251;-83
2024/03/09 08:28:36;;;;;;;11.07;5.40;;;;;;;-145.69;53.54;52361.22;5115832;28;20677;-83
2024/03/09 08:31:08;;;;;;;11.73;5.20;;;;;;;-145.69;52.54;52333.47;5102440;28;20202;-83
2024/03/09 08:33:41;;;;;;;11.77;5.67;;;;;;;-145.69;51.85;52369.13;5108618;28;20203;-84
2024/03/09 08:36:10;;;;;;;10.20;5.30;;;;;;;-145.69;51.45;52343.38;5115471;28;20197;-83
2024/03/09 08:38:39;;;;;;;11.53;4.90;;;;;;;-145.69;50.87;52321.59;5115062;28;20288;-83
2024/03/09 08:41:09;;;;;;;9.63;4.63;;;;;;;-145.69;50.39;52341.41;5114606;28;20198;-84
2024/03/09 08:43:36;;;;;;;14.43;4.80;;;;;;;-145.69;50.26;52359.22;5118662;28;20221;-83
2024/03/09 08:46:07;;;;;;;11.17;4.70;;;;;;;-145.69;48.59;52353.28;5121552;28;20671;-82
2024/03/09 08:48:36;;;;;;;9.13;4.57;;;;;;;-145.69;47.96;52311.69;5101343;28;20617;-83
2024/03/09 08:51:04;;;;;;;9.93;4.43;;;;;;;-145.69;47.45;52329.53;5098981;28;20228;-83
2024/03/09 08:53:35;;;;;;;7.80;3.97;;;;;;;-145.69;48.16;52311.69;5101528;28;20233;-82
2024/03/09 08:56:11;;;;;;;8.03;4.67;;;;;;;-145.69;47.53;52345.38;5101116;28;20209;-82
2024/03/09 08:58:41;;;;;;;8.27;4.13;;;;;;;-145.69;46.13;52297.84;5101537;28;20603;-82
2024/03/09 09:01:07;;;;;;;9.25;3.78;;;;;;;-145.69;46.23;52339.44;5107358;28;20181;-82
2024/03/09 09:03:35;;;;;;;7.50;3.87;;;;;;;-145.69;46.84;52285.97;5119299;27;20217;-81
2024/03/09 09:06:03;;;;;;;8.70;4.17;;;;;;;-145.69;45.92;52319.63;5101318;28;20248;-82
2024/03/09 09:08:29;;;;;;;8.07;4.10;;;;;;;-145.69;45.85;52337.44;5119092;28;20235;-82
2024/03/09 09:10:56;;;;;;;9.93;4.30;;;;;;;-145.69;45.51;52293.88;5120625;28;20269;-82
2024/03/09 09:13:23;;;;;;;7.57;4.07;;;;;;;-145.69;45.50;52282.00;5120942;28;20194;-83
2024/03/09 09:15:52;;;;;;;9.87;3.97;;;;;;;-145.69;44.88;52276.06;5126042;28;20205;-84
2024/03/09 09:18:18;;;;;;;7.77;4.23;;;;;;;-145.69;44.64;52319.63;5126715;28;20200;-81
2024/03/09 09:20:48;;;;;;;9.80;4.07;;;;;;;-145.69;44.50;52299.81;5119644;28;20298;-83
2024/03/09 09:23:15;;;;;;;9.67;3.93;;;;;;;-145.69;43.51;52297.84;5108857;28;20221;-81
2024/03/09 09:25:41;;;;;;;8.10;3.60;;;;;;;-145.69;43.08;52307.75;5121117;28;20655;-81
2024/03/09 09:28:08;;;;;;;7.47;3.70;;;;;;;-145.69;43.48;52303.78;5126781;27;20193;-81
2024/03/09 09:30:34;;;;;;;11.87;3.73;;;;;;;-145.69;43.02;52295.84;5139944;27;20268;-81
2024/03/09 09:33:06;;;;;;;6.70;3.40;;;;;;;-145.69;41.91;52295.84;5121692;27;20395;-82
2024/03/09 09:35:33;;;;;;;7.55;3.50;;;;;;;-145.69;42.44;52323.59;5114247;27;20209;-81
2024/03/09 09:37:59;;;;;;;9.70;4.50;;;;;;;-145.69;42.38;52289.91;5115278;28;20337;-80
2024/03/09 09:40:26;;;;;;;10.23;4.20;;;;;;;-145.69;42.02;52321.59;5116022;28;20189;-82
2024/03/09 09:42:53;;;;;;;9.02;4.18;;;;;;;-145.69;42.07;52278.03;5116146;28;20303;-82
2024/03/09 09:45:22;;;;;;;6.77;3.60;;;;;;;-145.69;42.10;52266.16;5115851;28;20205;-82
2024/03/09 09:47:50;;;;;;;8.70;3.83;;;;;;;-145.69;41.64;52274.06;5116080;28;20201;-83
2024/03/09 09:50:18;;;;;;;6.00;3.03;;;;;;;-145.69;41.13;52285.97;5116141;28;20193;-81
2024/03/09 09:52:50;;;;;;;7.28;4.03;;;;;;;-145.69;40.99;52274.06;5115119;28;20213;-81
2024/03/09 09:55:19;;;;;;;8.02;3.90;;;;;;;-145.69;40.76;52321.59;5108048;28;20644;-82
2024/03/09 09:57:46;;;;;;;8.05;4.18;;;;;;;-145.69;41.15;52323.59;5095768;28;20209;-82
2024/03/09 10:00:13;;;;;;;7.93;4.00;;;;;;;-145.69;41.21;52282.00;5095201;28;20198;-80
2024/03/09 10:02:40;;;;;;;7.93;4.23;;;;;;;-145.69;41.26;52297.84;5098141;28;20232;-80
2024/03/09 10:05:12;;;;;;;8.40;4.10;;;;;;;-145.69;40.46;52262.19;5115806;28;20201;-81
2024/03/09 10:07:58;;;;;;;8.03;3.60;;;;;;;-145.69;40.78;52280.00;5115600;28;20202;-80
2024/03/09 10:10:27;;;;;;;11.23;3.80;;;;;;;-145.69;40.73;52260.22;5115718;28;20208;-82
2024/03/09 10:13:04;;;;;;;9.13;4.18;;;;;;;-145.69;40.40;52282.00;5114337;28;20292;-80
2024/03/09 10:15:31;;;;;;;10.60;4.00;;;;;;;-145.69;41.03;52282.00;5115426;28;20632;-81
2024/03/09 10:17:57;;;;;;;6.65;4.00;;;;;;;-145.69;40.08;52272.09;5115365;28;20197;-81
2024/03/09 10:20:24;;;;;;;9.93;4.50;;;;;;;-145.69;39.85;52266.16;5115286;28;20205;-82
2024/03/09 10:22:53;;;;;;;9.60;4.70;;;;;;;-145.69;40.34;52266.16;5114711;28;20253;-81
2024/03/09 10:25:25;;;;;;;9.40;4.40;;;;;;;-145.69;40.03;52262.19;5115109;28;20205;-81
2024/03/09 10:27:52;;;;;;;9.40;4.15;;;;;;;-145.69;39.75;52260.22;5114693;28;20201;-80
2024/03/09 10:30:19;;;;;;;10.38;4.57;;;;;;;-145.69;39.34;52272.09;5098164;28;20260;-80
2024/03/09 10:32:46;;;;;;;9.55;5.32;;;;;;;-145.69;39.69;52246.34;5111656;28;20201;-82
2024/03/09 10:35:14;;;;;;;10.40;4.50;;;;;;;-145.69;40.15;52289.91;5113798;28;20435;-81
2024/03/09 10:37:42;;;;;;;8.18;4.63;;;;;;;-145.69;40.12;52283.97;5114707;28;20206;-80
2024/03/09 10:40:14;;;;;;;10.63;4.55;;;;;;;-145.69;39.67;52248.34;5114814;28;20270;-80
2024/03/09 10:42:43;;;;;;;8.10;4.28;;;;;;;-145.69;39.71;52256.25;5114535;28;20256;-82
2024/03/09 10:45:14;;;;;;;9.02;4.60;;;;;;;-145.69;39.57;52254.28;5114985;28;20201;-82
2024/03/09 10:47:47;;;;;;;9.38;4.13;;;;;;;-145.69;39.24;52254.28;5114671;28;20212;-81
2024/03/09 10:50:20;;;;;;;8.65;3.67;;;;;;;-145.69;39.11;52254.28;5114605;28;20197;-81
2024/03/09 10:52:53;;;;;;;8.95;3.70;;;;;;;-145.69;38.20;52264.16;5114511;28;20236;-81
2024/03/09 10:55:28;;;;;;;7.43;3.78;;;;;;;-145.69;38.92;52262.19;5114843;28;20675;-80
2024/03/09 10:57:58;;;;;;;7.85;4.00;;;;;;;-145.69;38.93;52272.09;5114352;28;20195;-81
2024/03/09 11:00:29;;;;;;;5.50;2.83;;;;;;;-145.69;38.74;52266.16;5114508;28;20194;-81
2024/03/09 11:02:56;;;;;;;8.32;3.20;;;;;;;-145.69;38.94;52266.16;5113699;28;20675;-82
2024/03/09 11:05:24;;;;;;;6.88;3.65;;;;;;;-145.69;38.01;52270.13;5114392;28;20295;-82
2024/03/09 11:07:52;;;;;;;7.43;3.45;;;;;;;-145.69;38.14;52258.22;5114573;28;20202;-82
2024/03/09 11:10:22;;;;;;;7.60;3.03;;;;;;;-145.69;38.55;52246.34;5114189;28;20656;-81
2024/03/09 11:12:49;;;;;;;6.15;2.95;;;;;;;-145.69;37.88;52236.44;5114297;28;20203;-80
2024/03/09 11:15:16;;;;;;;7.28;2.92;;;;;;;-145.69;37.81;52252.28;5111987;28;20201;-81
2024/03/09 11:17:44;;;;;;;5.63;3.13;;;;;;;-145.69;38.06;52254.28;5113955;28;20205;-81